Time;durP1;ratioP1;P1;durP2;ratioP2;P2;SDS_P1;SDS_P2;PMS_P1;PMS_P2;Temp;Humidity;BMP_temperature;BMP_pressure;BME280_temperature;BME280_humidity;BME280_pressure;Samples;Min_cycle;Max_cycle;Signal;HPM_P1;HPM_P2
2023/09/15 00:02:03;;;;;;;4.40;4.20;;;13.90;70.40;;;;;;6009044;29;20339;-82
2023/09/15 00:05:08;;;;;;;4.57;4.27;;;13.90;70.50;;;;;;6004930;29;20786;-83
2023/09/15 00:08:11;;;;;;;4.70;4.50;;;13.90;70.80;;;;;;6007143;29;20244;-82
2023/09/15 00:11:19;;;;;;;4.57;4.27;;;13.90;70.90;;;;;;6018653;29;20372;-83
2023/09/15 00:14:23;;;;;;;4.40;4.10;;;13.90;70.90;;;;;;6019714;29;20236;-82
2023/09/15 00:17:27;;;;;;;4.20;4.00;;;13.90;70.90;;;;;;6014390;29;20244;-82
2023/09/15 00:20:31;;;;;;;4.43;4.10;;;13.90;70.80;;;;;;6016994;29;20243;-81
2023/09/15 00:23:34;;;;;;;3.80;3.60;;;14.00;70.90;;;;;;6015037;29;20249;-84
2023/09/15 00:26:37;;;;;;;3.67;3.57;;;14.00;70.80;;;;;;6013743;29;20257;-82
2023/09/15 00:29:41;;;;;;;4.20;3.87;;;14.00;70.80;;;;;;6004403;29;20272;-82
2023/09/15 00:32:49;;;;;;;3.93;3.73;;;13.90;71.00;;;;;;6009782;29;20332;-81
2023/09/15 00:35:52;;;;;;;5.67;4.20;;;13.90;71.00;;;;;;6011147;29;20257;-82
2023/09/15 00:38:55;;;;;;;3.60;3.50;;;13.90;71.10;;;;;;6011010;29;20701;-82
2023/09/15 00:41:58;;;;;;;3.90;3.70;;;13.90;71.10;;;;;;6024018;29;20619;-81
2023/09/15 00:45:05;;;;;;;3.90;3.70;;;13.90;71.20;;;;;;6026595;29;20336;-83
2023/09/15 00:48:10;;;;;;;4.10;3.90;;;13.80;71.20;;;;;;6020078;29;20245;-82
2023/09/15 00:51:14;;;;;;;4.30;4.10;;;13.80;71.40;;;;;;6017891;29;20732;-83
2023/09/15 00:54:17;;;;;;;3.97;3.77;;;13.70;71.40;;;;;;6003320;29;20342;-81
2023/09/15 00:57:22;;;;;;;3.77;3.67;;;13.60;71.50;;;;;;6003470;29;20241;-81
2023/09/15 01:00:26;;;;;;;4.07;3.87;;;13.60;71.80;;;;;;6018814;29;20247;-82
2023/09/15 01:03:32;;;;;;;4.07;3.90;;;13.60;72.00;;;;;;6004568;29;20745;-83
2023/09/15 01:06:39;;;;;;;3.67;3.50;;;13.50;72.20;;;;;;6012554;29;20260;-83
2023/09/15 01:09:43;;;;;;;3.93;3.73;;;13.50;72.30;;;;;;6019268;29;20736;-81
2023/09/15 01:12:49;;;;;;;3.37;3.27;;;13.50;72.50;;;;;;6011370;29;20230;-82
2023/09/15 01:15:57;;;;;;;4.70;4.30;;;13.40;72.70;;;;;;6010896;29;20241;-79
2023/09/15 01:19:18;;;;;;;4.07;3.97;;;13.40;73.10;;;;;;6007564;29;20253;-82
2023/09/15 01:22:48;;;;;;;4.27;4.07;;;13.40;73.10;;;;;;6010134;29;20240;-83
2023/09/15 01:26:21;;;;;;;4.97;4.67;;;13.40;73.20;;;;;;6016347;29;20241;-84
2023/09/15 01:29:45;;;;;;;4.57;4.30;;;13.40;73.20;;;;;;6003306;29;20390;-81
2023/09/15 01:32:51;;;;;;;4.63;4.30;;;13.40;73.30;;;;;;6020912;29;20597;-82
2023/09/15 01:35:54;;;;;;;4.33;4.13;;;13.40;73.40;;;;;;6025587;29;20243;-82
2023/09/15 01:38:57;;;;;;;4.43;4.23;;;13.40;73.80;;;;;;6018337;29;20256;-83
2023/09/15 01:42:00;;;;;;;4.80;4.60;;;13.50;73.40;;;;;;6015895;29;20249;-84
2023/09/15 01:45:06;;;;;;;4.40;4.20;;;13.50;73.50;;;;;;6016252;29;20323;-83
2023/09/15 01:48:11;;;;;;;4.37;4.07;;;13.50;73.50;;;;;;6018652;29;20253;-82
2023/09/15 01:51:14;;;;;;;5.33;4.97;;;13.50;73.40;;;;;;6009473;29;20372;-82
2023/09/15 01:54:17;;;;;;;4.10;3.90;;;13.50;73.60;;;;;;6010837;29;20297;-83
2023/09/15 01:57:21;;;;;;;4.40;4.30;;;13.50;73.50;;;;;;5994260;29;20241;-82
2023/09/15 02:00:33;;;;;;;4.03;3.90;;;13.40;73.60;;;;;;6010156;29;20238;-82
2023/09/15 02:03:36;;;;;;;4.10;4.00;;;13.30;73.90;;;;;;6010153;29;20237;-83
2023/09/15 02:06:40;;;;;;;4.07;3.87;;;13.30;73.90;;;;;;6017913;29;20245;-82
2023/09/15 02:09:43;;;;;;;4.60;4.30;;;13.30;74.00;;;;;;6013134;29;20758;-82
2023/09/15 02:12:46;;;;;;;4.67;4.27;;;13.30;74.00;;;;;;6009636;29;20489;-82
2023/09/15 02:15:53;;;;;;;4.20;4.00;;;13.30;74.10;;;;;;6001846;29;20245;-82
2023/09/15 02:18:56;;;;;;;5.00;4.70;;;13.20;74.10;;;;;;6016662;29;20249;-81
2023/09/15 02:21:59;;;;;;;4.97;4.70;;;13.20;74.70;;;;;;6024753;29;20241;-81
2023/09/15 02:25:02;;;;;;;4.27;4.10;;;13.20;74.70;;;;;;6017166;29;20274;-82
2023/09/15 02:28:05;;;;;;;4.53;4.33;;;13.20;74.70;;;;;;6017416;29;20244;-81
2023/09/15 02:31:13;;;;;;;4.60;4.30;;;13.20;74.80;;;;;;6020438;29;20777;-81
2023/09/15 02:34:16;;;;;;;4.30;4.10;;;13.10;74.90;;;;;;6010968;29;20233;-80
2023/09/15 02:37:19;;;;;;;5.00;4.60;;;13.10;74.90;;;;;;6014667;29;20240;-83
2023/09/15 02:40:24;;;;;;;4.90;4.60;;;13.10;75.10;;;;;;6008948;29;20245;-80
2023/09/15 02:43:27;;;;;;;4.90;4.57;;;13.10;75.20;;;;;;6009888;29;20336;-83
2023/09/15 02:46:32;;;;;;;4.70;4.50;;;13.10;75.60;;;;;;6022213;29;20247;-83
2023/09/15 02:49:36;;;;;;;4.97;4.77;;;13.10;75.50;;;;;;6013544;29;20248;-81
2023/09/15 02:52:39;;;;;;;4.30;4.10;;;13.10;75.50;;;;;;6008586;29;20320;-83
2023/09/15 02:55:54;;;;;;;4.70;4.50;;;13.10;75.40;;;;;;6015249;29;20237;-83
2023/09/15 02:58:57;;;;;;;4.60;4.43;;;13.00;75.40;;;;;;6003322;29;20905;-82
2023/09/15 03:02:02;;;;;;;4.20;4.00;;;13.00;75.40;;;;;;6023100;29;20385;-82
2023/09/15 03:05:06;;;;;;;4.70;4.40;;;12.90;75.50;;;;;;6020126;29;20256;-82
2023/09/15 03:08:10;;;;;;;4.53;4.43;;;12.90;75.70;;;;;;6007955;29;20245;-83
2023/09/15 03:11:16;;;;;;;4.83;4.63;;;12.90;75.80;;;;;;6020852;29;20232;-82
2023/09/15 03:14:20;;;;;;;5.17;4.87;;;12.90;75.80;;;;;;6018417;29;20730;-82
2023/09/15 03:17:24;;;;;;;5.03;4.73;;;12.90;76.30;;;;;;6021837;29;20344;-85
2023/09/15 03:20:28;;;;;;;6.50;5.90;;;12.90;76.10;;;;;;6008497;29;20260;-81
2023/09/15 03:23:31;;;;;;;4.63;4.50;;;12.90;76.10;;;;;;6022892;29;20282;-83
2023/09/15 03:26:35;;;;;;;5.03;4.70;;;12.80;76.20;;;;;;6008607;29;20252;-82
2023/09/15 03:29:38;;;;;;;5.50;5.10;;;12.80;76.20;;;;;;6002368;29;20324;-82
2023/09/15 03:32:42;;;;;;;6.20;5.33;;;12.80;76.20;;;;;;6008749;29;20291;-82
2023/09/15 03:35:45;;;;;;;5.53;5.23;;;12.80;76.40;;;;;;6021298;29;20632;-83
2023/09/15 03:38:49;;;;;;;5.50;5.20;;;12.80;76.50;;;;;;6011030;29;20745;-83
2023/09/15 03:41:54;;;;;;;5.40;5.13;;;12.80;76.70;;;;;;6009554;29;20244;-83
2023/09/15 03:44:57;;;;;;;5.83;5.43;;;12.70;76.60;;;;;;6014843;29;20332;-80
2023/09/15 03:48:02;;;;;;;5.90;5.53;;;12.70;77.00;;;;;;6006923;29;20287;-82
2023/09/15 03:51:06;;;;;;;5.43;5.03;;;12.70;77.00;;;;;;6013294;29;20241;-83
2023/09/15 03:54:09;;;;;;;5.50;5.10;;;12.70;76.90;;;;;;6010295;29;20810;-83
2023/09/15 03:57:12;;;;;;;6.30;5.70;;;12.70;76.90;;;;;;6009851;29;20880;-82
2023/09/15 04:00:17;;;;;;;5.77;5.47;;;12.70;77.00;;;;;;6020594;29;20695;-78
2023/09/15 04:03:22;;;;;;;5.30;5.00;;;12.60;77.00;;;;;;6013312;29;20721;-82
2023/09/15 04:06:25;;;;;;;6.70;6.20;;;12.70;77.00;;;;;;6012841;29;20237;-81
2023/09/15 04:09:29;;;;;;;5.20;4.93;;;12.60;77.20;;;;;;6006822;29;20256;-81
2023/09/15 04:12:32;;;;;;;6.03;5.63;;;12.60;77.20;;;;;;6010792;29;20251;-81
2023/09/15 04:15:35;;;;;;;6.40;5.90;;;12.60;77.20;;;;;;6000309;29;20261;-84
2023/09/15 04:18:42;;;;;;;5.80;5.50;;;12.60;77.30;;;;;;6007405;29;20761;-80
2023/09/15 04:21:46;;;;;;;6.97;6.47;;;12.50;77.20;;;;;;6009792;29;20238;-81
2023/09/15 04:24:49;;;;;;;6.33;5.93;;;12.50;77.30;;;;;;6005455;29;20743;-81
2023/09/15 04:27:52;;;;;;;5.20;5.00;;;12.50;77.40;;;;;;6018027;29;20251;-81
2023/09/15 04:30:55;;;;;;;5.43;5.13;;;12.50;77.50;;;;;;6004960;29;20245;-81
2023/09/15 04:34:00;;;;;;;5.77;5.43;;;12.50;77.50;;;;;;6004288;29;20845;-81
2023/09/15 04:37:03;;;;;;;6.07;5.53;;;12.50;77.40;;;;;;6001347;29;20388;-81
2023/09/15 04:40:08;;;;;;;7.27;5.60;;;12.50;77.60;;;;;;6012363;29;20244;-83
2023/09/15 04:43:12;;;;;;;5.70;5.37;;;12.50;77.80;;;;;;6002326;29;20241;-82
2023/09/15 04:46:17;;;;;;;5.63;5.13;;;12.50;77.80;;;;;;6004248;29;20814;-80
2023/09/15 04:49:22;;;;;;;5.93;5.50;;;12.50;77.90;;;;;;6019027;29;20697;-80
2023/09/15 04:52:25;;;;;;;5.20;4.90;;;12.50;77.90;;;;;;6006823;29;20241;-82
2023/09/15 04:55:28;;;;;;;5.60;5.30;;;12.50;77.90;;;;;;6020241;29;20328;-81
2023/09/15 04:58:32;;;;;;;6.10;5.60;;;12.50;77.90;;;;;;6022274;29;20240;-80
2023/09/15 05:01:35;;;;;;;6.10;5.70;;;12.50;77.90;;;;;;6008962;29;20358;-81
2023/09/15 05:04:39;;;;;;;6.30;5.80;;;12.50;78.10;;;;;;6013589;29;20714;-82
2023/09/15 05:07:43;;;;;;;6.80;6.23;;;12.50;78.10;;;;;;6005028;29;20256;-81
2023/09/15 05:10:48;;;;;;;5.23;4.93;;;12.50;78.10;;;;;;6011191;29;20256;-79
2023/09/15 05:13:53;;;;;;;6.20;5.87;;;12.60;78.10;;;;;;6007270;29;20789;-81
2023/09/15 05:16:56;;;;;;;6.30;5.70;;;12.70;78.10;;;;;;6014040;29;20252;-80
2023/09/15 05:20:00;;;;;;;6.87;6.27;;;12.70;78.30;;;;;;6005014;29;20236;-80
2023/09/15 05:23:04;;;;;;;6.70;6.10;;;12.70;78.10;;;;;;6008121;29;20807;-79
2023/09/15 05:26:08;;;;;;;7.70;6.80;;;12.80;78.10;;;;;;6018732;29;20264;-80
2023/09/15 05:29:11;;;;;;;6.40;6.00;;;12.80;78.00;;;;;;6022068;29;20244;-79
2023/09/15 05:32:14;;;;;;;7.00;6.50;;;12.90;78.20;;;;;;6016858;29;20323;-79
2023/09/15 05:35:19;;;;;;;7.23;6.63;;;12.90;78.00;;;;;;6017704;29;20240;-81
2023/09/15 05:38:22;;;;;;;7.23;6.60;;;13.00;78.00;;;;;;6021828;29;20749;-76
2023/09/15 05:41:25;;;;;;;6.43;5.90;;;13.00;77.90;;;;;;6010304;29;20272;-75
2023/09/15 05:44:28;;;;;;;6.50;6.00;;;13.00;77.80;;;;;;6007486;29;20264;-76
2023/09/15 05:47:33;;;;;;;6.27;5.77;;;13.10;77.70;;;;;;6017493;29;20529;-77
2023/09/15 05:50:37;;;;;;;6.33;5.80;;;13.10;77.70;;;;;;6013781;29;20245;-76
2023/09/15 05:53:40;;;;;;;8.17;6.17;;;13.10;77.50;;;;;;6006248;29;20241;-77
2023/09/15 05:56:43;;;;;;;6.30;5.90;;;13.10;77.50;;;;;;6004746;29;20256;-77
2023/09/15 05:59:47;;;;;;;7.30;6.70;;;13.20;77.30;;;;;;6007470;29;20750;-76
2023/09/15 06:02:50;;;;;;;6.93;6.33;;;13.20;77.30;;;;;;6013530;29;20253;-79
2023/09/15 06:05:55;;;;;;;9.50;6.60;;;13.30;77.30;;;;;;6016948;29;20260;-77
2023/09/15 06:08:58;;;;;;;6.17;5.60;;;13.30;77.20;;;;;;6012431;29;20255;-80
2023/09/15 06:12:01;;;;;;;6.60;6.00;;;13.40;77.20;;;;;;6008641;29;20228;-79
2023/09/15 06:15:05;;;;;;;6.67;6.17;;;13.50;76.90;;;;;;6014825;29;20470;-77
2023/09/15 06:18:09;;;;;;;6.57;5.97;;;13.70;77.30;;;;;;6026841;29;20245;-78
2023/09/15 06:21:13;;;;;;;5.87;5.47;;;13.90;76.60;;;;;;6012480;29;20241;-80
2023/09/15 06:24:16;;;;;;;7.10;6.60;;;14.10;75.90;;;;;;6015086;29;20712;-79
2023/09/15 06:27:20;;;;;;;6.57;5.97;;;14.10;75.40;;;;;;6007563;29;20237;-81
2023/09/15 06:30:23;;;;;;;7.60;6.20;;;14.10;75.50;;;;;;6016530;29;20719;-78
2023/09/15 06:33:26;;;;;;;6.53;6.00;;;14.20;75.50;;;;;;6010200;29;20889;-80
2023/09/15 06:36:39;;;;;;;7.20;6.50;;;14.10;75.10;;;;;;6006951;29;20304;-80
2023/09/15 06:39:42;;;;;;;7.43;6.37;;;14.20;75.30;;;;;;6009174;29;20251;-80
2023/09/15 06:42:45;;;;;;;7.17;6.43;;;14.20;75.30;;;;;;6028563;29;20233;-79
2023/09/15 06:45:48;;;;;;;6.33;5.93;;;14.20;75.30;;;;;;6006414;29;20257;-81
2023/09/15 06:48:51;;;;;;;6.47;5.97;;;14.30;75.10;;;;;;6013212;29;20764;-79
2023/09/15 06:51:56;;;;;;;7.13;6.47;;;14.40;75.10;;;;;;6007357;29;20792;-79
2023/09/15 06:54:59;;;;;;;6.60;5.83;;;14.50;74.90;;;;;;6009830;29;20245;-79
2023/09/15 06:58:02;;;;;;;6.97;6.23;;;14.60;74.90;;;;;;6012464;29;20846;-80
2023/09/15 07:01:05;;;;;;;6.37;5.90;;;14.70;74.80;;;;;;6009817;29;20245;-79
2023/09/15 07:04:10;;;;;;;6.90;6.30;;;14.80;74.60;;;;;;6020651;29;20243;-79
2023/09/15 07:07:15;;;;;;;8.27;5.80;;;15.00;74.30;;;;;;6012258;29;20316;-78
2023/09/15 07:10:18;;;;;;;6.87;6.40;;;15.00;74.00;;;;;;6014526;29;20285;-79
2023/09/15 07:13:22;;;;;;;5.83;5.33;;;15.30;73.40;;;;;;6008485;29;20737;-80
2023/09/15 07:16:26;;;;;;;5.67;5.23;;;15.50;72.70;;;;;;6016971;29;20260;-80
2023/09/15 07:19:30;;;;;;;7.20;6.07;;;15.70;72.20;;;;;;6006593;29;20249;-80
2023/09/15 07:22:35;;;;;;;6.87;5.90;;;15.80;71.70;;;;;;6003583;29;20252;-79
2023/09/15 07:25:39;;;;;;;7.73;5.97;;;15.80;71.60;;;;;;6003476;29;20339;-79
2023/09/15 07:28:42;;;;;;;6.63;6.07;;;15.80;71.60;;;;;;5998484;29;20252;-80
2023/09/15 07:31:45;;;;;;;8.10;6.10;;;15.80;71.80;;;;;;6007589;29;20241;-80
2023/09/15 07:34:49;;;;;;;8.37;6.57;;;15.80;71.50;;;;;;6023649;29;20721;-81
2023/09/15 07:37:53;;;;;;;7.03;6.10;;;15.80;71.20;;;;;;6000759;29;20635;-80
2023/09/15 07:40:57;;;;;;;6.77;5.97;;;15.80;71.50;;;;;;6027010;29;20240;-78
2023/09/15 07:44:00;;;;;;;7.23;5.90;;;15.80;71.50;;;;;;6017991;29;20237;-78
2023/09/15 07:47:06;;;;;;;6.60;5.90;;;15.80;71.30;;;;;;6009214;29;20261;-77
2023/09/15 07:50:10;;;;;;;5.70;5.20;;;15.90;71.30;;;;;;6024856;29;20264;-79
2023/09/15 07:53:16;;;;;;;6.87;6.30;;;16.00;71.10;;;;;;6012201;29;20261;-79
2023/09/15 07:56:21;;;;;;;5.83;5.33;;;16.00;70.90;;;;;;6012161;29;20772;-81
2023/09/15 07:59:24;;;;;;;9.93;5.93;;;16.20;71.10;;;;;;6018421;29;20275;-80
2023/09/15 08:02:30;;;;;;;5.90;5.30;;;16.20;70.40;;;;;;6018060;29;20241;-77
2023/09/15 08:05:34;;;;;;;6.27;5.80;;;16.20;70.40;;;;;;6015425;29;20268;-78
2023/09/15 08:08:38;;;;;;;5.60;5.30;;;16.30;70.00;;;;;;6013903;29;20861;-82
2023/09/15 08:11:41;;;;;;;6.33;5.73;;;16.30;70.30;;;;;;6023063;29;20710;-80
2023/09/15 08:14:45;;;;;;;6.17;5.63;;;16.40;70.20;;;;;;6013967;29;20257;-79
2023/09/15 08:17:48;;;;;;;6.47;5.87;;;16.50;70.00;;;;;;6005752;29;20264;-80
2023/09/15 08:20:54;;;;;;;5.50;5.10;;;16.60;69.90;;;;;;6014190;29;20367;-79
2023/09/15 08:23:58;;;;;;;5.73;5.07;;;16.70;69.40;;;;;;6008555;29;20305;-80
2023/09/15 08:27:01;;;;;;;5.50;4.90;;;16.80;69.00;;;;;;6010981;29;20249;-79
2023/09/15 08:30:06;;;;;;;9.17;5.40;;;17.00;69.30;;;;;;6011797;29;20381;-80
2023/09/15 08:33:10;;;;;;;6.83;4.97;;;17.10;68.80;;;;;;6022759;29;20308;-80
2023/09/15 08:36:15;;;;;;;5.70;5.20;;;17.20;68.20;;;;;;6015557;29;20809;-81
2023/09/15 08:39:19;;;;;;;5.90;5.50;;;17.40;68.30;;;;;;6013946;29;22047;-81
2023/09/15 08:42:26;;;;;;;5.63;5.13;;;17.40;67.80;;;;;;6013157;29;20301;-79
2023/09/15 08:45:30;;;;;;;4.90;4.60;;;17.50;67.90;;;;;;6000749;29;20250;-81
2023/09/15 08:48:39;;;;;;;5.57;5.13;;;17.50;68.00;;;;;;6008997;29;20280;-79
2023/09/15 08:51:44;;;;;;;6.20;5.40;;;17.60;67.50;;;;;;6008246;29;20808;-80
2023/09/15 08:54:52;;;;;;;5.57;5.17;;;17.60;67.50;;;;;;6010785;29;20340;-80
2023/09/15 08:57:56;;;;;;;4.67;4.27;;;17.80;67.10;;;;;;6018410;29;20268;-80
2023/09/15 09:00:59;;;;;;;7.27;5.03;;;18.00;66.40;;;;;;6028562;29;20241;-79
2023/09/15 09:04:03;;;;;;;4.80;4.37;;;18.10;65.60;;;;;;6011965;29;20241;-82
2023/09/15 09:07:07;;;;;;;4.97;4.47;;;18.30;64.70;;;;;;6010011;29;20726;-77
2023/09/15 09:10:12;;;;;;;4.60;4.37;;;18.40;64.30;;;;;;6009616;29;20344;-81
2023/09/15 09:13:15;;;;;;;5.07;4.07;;;18.60;64.30;;;;;;6004435;29;20291;-80
2023/09/15 09:16:32;;;;;;;4.53;3.70;;;18.60;63.20;;;;;;6013709;29;20622;-79
2023/09/15 09:19:39;;;;;;;7.03;4.23;;;18.70;63.50;;;;;;6016364;29;20274;-80
2023/09/15 09:22:42;;;;;;;4.83;4.43;;;18.90;63.20;;;;;;6014880;29;20238;-81
2023/09/15 09:25:48;;;;;;;4.40;4.10;;;19.10;62.70;;;;;;6014079;29;20241;-80
2023/09/15 09:28:54;;;;;;;4.20;3.90;;;19.20;62.60;;;;;;6004236;29;20237;-82
2023/09/15 09:31:57;;;;;;;4.50;3.90;;;19.30;61.40;;;;;;6013884;29;20241;-79
2023/09/15 09:35:00;;;;;;;4.83;4.20;;;19.40;61.10;;;;;;6009100;29;20244;-83
2023/09/15 09:38:04;;;;;;;3.57;3.27;;;19.50;60.60;;;;;;6012460;29;20241;-80
2023/09/15 09:41:11;;;;;;;3.80;3.57;;;19.60;61.20;;;;;;6011801;29;20328;-79
2023/09/15 09:44:15;;;;;;;3.77;3.57;;;19.70;59.80;;;;;;6008396;29;20240;-79
2023/09/15 09:47:18;;;;;;;3.90;3.60;;;19.70;59.60;;;;;;6011001;29;20299;-80
2023/09/15 09:50:22;;;;;;;3.57;3.43;;;19.70;59.90;;;;;;6013461;29;20241;-83
2023/09/15 09:53:29;;;;;;;3.50;3.30;;;19.80;59.50;;;;;;6021228;29;20739;-81
2023/09/15 09:56:34;;;;;;;3.90;3.60;;;20.00;59.70;;;;;;6024544;29;20248;-84
2023/09/15 09:59:38;;;;;;;3.20;3.00;;;20.20;59.40;;;;;;6013666;29;22025;-81
2023/09/15 10:02:42;;;;;;;3.40;3.30;;;20.30;58.80;;;;;;6015898;29;20240;-82
2023/09/15 10:05:47;;;;;;;3.37;3.17;;;20.50;58.80;;;;;;6032170;29;20367;-80
2023/09/15 10:08:52;;;;;;;4.13;3.73;;;20.80;57.50;;;;;;6012422;29;20254;-81
2023/09/15 10:11:57;;;;;;;3.20;3.10;;;20.80;56.50;;;;;;6013713;29;20268;-81
2023/09/15 10:15:02;;;;;;;3.77;3.50;;;20.90;56.80;;;;;;6020492;29;20400;-80
2023/09/15 10:18:07;;;;;;;4.00;3.70;;;21.00;56.40;;;;;;6006587;29;20652;-81
2023/09/15 10:21:10;;;;;;;3.70;3.40;;;21.00;56.60;;;;;;6017535;29;20252;-80
2023/09/15 10:24:16;;;;;;;3.80;3.40;;;21.10;56.40;;;;;;6013628;29;20308;-80
2023/09/15 10:27:21;;;;;;;3.53;3.43;;;21.10;56.00;;;;;;6012293;29;20768;-81
2023/09/15 10:30:24;;;;;;;3.70;3.53;;;21.30;56.10;;;;;;6014956;29;20256;-81
2023/09/15 10:33:28;;;;;;;3.87;3.40;;;21.50;55.70;;;;;;6014117;29;20777;-80
2023/09/15 10:36:32;;;;;;;3.47;3.37;;;21.70;55.00;;;;;;6017211;29;20237;-81
2023/09/15 10:39:37;;;;;;;4.37;4.07;;;21.80;55.00;;;;;;6011948;29;20528;-78
2023/09/15 10:42:52;;;;;;;3.97;3.67;;;22.00;55.50;;;;;;6009002;29;20246;-78
2023/09/15 10:45:57;;;;;;;4.50;3.70;;;22.10;53.90;;;;;;6011241;29;20245;-80
2023/09/15 10:49:01;;;;;;;4.40;4.00;;;22.10;53.80;;;;;;6009282;29;20242;-77
2023/09/15 10:52:04;;;;;;;3.83;3.63;;;22.20;53.30;;;;;;6012557;29;20324;-78
2023/09/15 10:55:08;;;;;;;4.07;3.77;;;22.20;53.10;;;;;;6011536;29;20734;-79
2023/09/15 10:58:15;;;;;;;3.80;3.70;;;22.20;53.80;;;;;;6014861;29;20248;-82
2023/09/15 11:01:19;;;;;;;5.33;3.57;;;22.20;53.50;;;;;;6013829;29;20269;-80
2023/09/15 11:04:22;;;;;;;3.90;3.47;;;22.20;53.90;;;;;;6011949;29;20317;-80
2023/09/15 11:07:26;;;;;;;5.33;3.90;;;22.10;54.10;;;;;;6012238;29;20245;-79
2023/09/15 11:10:31;;;;;;;4.50;4.30;;;22.20;54.60;;;;;;6013391;29;20309;-78
2023/09/15 11:13:37;;;;;;;5.40;3.90;;;22.50;53.90;;;;;;6017857;29;20241;-79
2023/09/15 11:16:44;;;;;;;4.43;4.13;;;22.50;53.90;;;;;;6007248;29;20245;-79
2023/09/15 11:19:47;;;;;;;4.00;3.67;;;22.60;53.70;;;;;;6008478;29;20233;-79
2023/09/15 11:22:55;;;;;;;4.93;3.93;;;22.50;54.10;;;;;;6017322;29;20231;-81
2023/09/15 11:26:03;;;;;;;3.83;3.53;;;22.60;54.00;;;;;;6016281;29;20236;-78
2023/09/15 11:29:25;;;;;;;4.13;3.80;;;22.70;54.00;;;;;;6020463;29;20280;-77
2023/09/15 11:32:30;;;;;;;4.03;3.70;;;22.60;52.70;;;;;;6013273;29;20871;-76
2023/09/15 11:35:34;;;;;;;4.03;3.67;;;22.30;53.10;;;;;;6013585;29;20244;-78
2023/09/15 11:38:37;;;;;;;4.03;3.63;;;22.50;53.50;;;;;;6010935;29;20311;-76
2023/09/15 11:41:49;;;;;;;3.80;3.70;;;22.50;53.30;;;;;;6024043;29;20244;-77
2023/09/15 11:44:55;;;;;;;3.77;3.67;;;22.60;54.00;;;;;;6019664;29;20244;-77
2023/09/15 11:48:00;;;;;;;3.93;3.73;;;22.70;53.70;;;;;;6005060;29;20817;-76
2023/09/15 11:51:04;;;;;;;3.73;3.53;;;22.70;53.30;;;;;;6006306;29;20260;-78
2023/09/15 11:54:07;;;;;;;4.63;3.53;;;22.50;54.20;;;;;;6011123;29;20241;-77
2023/09/15 11:57:10;;;;;;;4.07;3.80;;;22.80;53.60;;;;;;6015892;29;20237;-78
2023/09/15 12:00:17;;;;;;;4.63;4.20;;;22.80;53.40;;;;;;6011958;29;20244;-79
2023/09/15 12:03:21;;;;;;;3.60;3.50;;;23.00;52.40;;;;;;6008568;29;20658;-77
2023/09/15 12:06:24;;;;;;;4.50;3.53;;;23.10;51.30;;;;;;6010977;29;20282;-77
2023/09/15 12:09:28;;;;;;;4.00;3.63;;;23.20;51.50;;;;;;6014889;29;20263;-77
2023/09/15 12:12:31;;;;;;;3.87;3.47;;;23.20;51.30;;;;;;6015738;29;20272;-78
2023/09/15 12:15:36;;;;;;;3.47;3.37;;;23.40;50.40;;;;;;6006005;29;20252;-79
2023/09/15 12:18:39;;;;;;;4.43;4.23;;;23.40;50.50;;;;;;6014790;29;20252;-75
2023/09/15 12:21:52;;;;;;;3.90;3.70;;;23.40;50.90;;;;;;6014500;29;20241;-76
2023/09/15 12:24:55;;;;;;;3.30;3.20;;;23.40;51.10;;;;;;6007914;29;20275;-79
2023/09/15 12:27:58;;;;;;;3.93;3.73;;;23.50;51.60;;;;;;6005376;29;20241;-79
2023/09/15 12:31:03;;;;;;;4.53;3.97;;;23.50;50.70;;;;;;6009571;29;20244;-80
2023/09/15 12:34:06;;;;;;;9.10;4.77;;;23.60;50.80;;;;;;6027552;29;20244;-78
2023/09/15 12:37:10;;;;;;;5.30;3.93;;;23.50;51.20;;;;;;6019865;29;20240;-78
2023/09/15 12:40:16;;;;;;;4.37;3.63;;;23.40;50.80;;;;;;6022321;29;20252;-79
2023/09/15 12:43:20;;;;;;;4.60;4.20;;;23.30;51.40;;;;;;6019707;29;20412;-78
2023/09/15 12:46:26;;;;;;;4.03;3.90;;;23.30;51.20;;;;;;6019033;29;20252;-77
2023/09/15 12:49:29;;;;;;;4.47;4.17;;;23.50;51.10;;;;;;6011121;29;20245;-78
2023/09/15 12:52:32;;;;;;;3.90;3.63;;;23.60;51.00;;;;;;6008990;29;20805;-78
2023/09/15 12:55:36;;;;;;;7.27;3.97;;;23.60;50.70;;;;;;6014709;29;20241;-76
2023/09/15 12:58:39;;;;;;;7.50;3.93;;;23.60;50.90;;;;;;6012987;29;20256;-77
2023/09/15 13:01:44;;;;;;;4.60;4.20;;;23.70;51.10;;;;;;6020119;29;20255;-77
2023/09/15 13:04:47;;;;;;;3.40;3.30;;;23.80;51.10;;;;;;6015128;29;20246;-78
2023/09/15 13:07:50;;;;;;;3.43;3.17;;;24.00;49.70;;;;;;6013769;29;20289;-80
2023/09/15 13:10:53;;;;;;;3.97;3.57;;;23.90;50.70;;;;;;6021643;29;20716;-77
2023/09/15 13:13:56;;;;;;;3.60;3.40;;;23.90;50.50;;;;;;6013501;29;20889;-78
2023/09/15 13:17:01;;;;;;;4.67;3.67;;;24.00;51.10;;;;;;6016175;29;20328;-77
2023/09/15 13:20:07;;;;;;;5.33;3.50;;;24.00;50.30;;;;;;6002755;29;20834;-79
2023/09/15 13:23:10;;;;;;;3.77;3.50;;;24.20;50.00;;;;;;6011536;29;20236;-79
2023/09/15 13:26:13;;;;;;;3.10;3.00;;;24.30;49.50;;;;;;6005830;29;20304;-78
2023/09/15 13:29:16;;;;;;;3.80;3.60;;;24.30;49.40;;;;;;6017898;29;20300;-78
2023/09/15 13:32:21;;;;;;;3.50;3.27;;;24.40;49.70;;;;;;6015522;29;20333;-78
2023/09/15 13:35:24;;;;;;;3.60;3.43;;;24.50;50.20;;;;;;6016413;29;20247;-79
2023/09/15 13:38:27;;;;;;;4.47;3.80;;;24.40;50.10;;;;;;6022892;29;20264;-78
2023/09/15 13:41:30;;;;;;;4.63;3.73;;;24.20;49.10;;;;;;6021411;29;20233;-79
2023/09/15 13:44:33;;;;;;;7.50;3.50;;;23.80;49.40;;;;;;6016990;29;20331;-79
2023/09/15 13:47:38;;;;;;;3.93;3.63;;;23.80;50.20;;;;;;6014600;29;20320;-78
2023/09/15 13:50:41;;;;;;;3.77;3.43;;;24.10;48.80;;;;;;6011360;29;20241;-77
2023/09/15 13:53:44;;;;;;;4.10;3.67;;;24.20;49.30;;;;;;6023687;29;20248;-78
2023/09/15 13:56:47;;;;;;;15.63;3.77;;;24.20;48.70;;;;;;6019716;29;20251;-79
2023/09/15 13:59:51;;;;;;;3.17;3.17;;;24.20;48.60;;;;;;6022440;29;20256;-78
2023/09/15 14:02:56;;;;;;;3.53;3.30;;;24.30;48.60;;;;;;6009441;29;20977;-78
2023/09/15 14:05:59;;;;;;;4.20;3.50;;;24.30;49.20;;;;;;6009694;29;20995;-77
2023/09/15 14:09:03;;;;;;;4.87;3.70;;;24.30;48.60;;;;;;6007619;29;20245;-78
2023/09/15 14:12:07;;;;;;;3.60;3.40;;;24.20;49.30;;;;;;6018693;29;20246;-77
2023/09/15 14:15:10;;;;;;;4.07;3.50;;;24.20;48.40;;;;;;6009949;29;20249;-79
2023/09/15 14:18:15;;;;;;;3.37;3.27;;;24.00;48.50;;;;;;6008440;29;20245;-79
2023/09/15 14:21:18;;;;;;;4.90;3.33;;;24.00;49.70;;;;;;6008295;29;20291;-80
2023/09/15 14:24:23;;;;;;;4.57;3.07;;;24.00;48.50;;;;;;6008261;29;20316;-80
2023/09/15 14:27:26;;;;;;;3.30;3.20;;;24.10;49.20;;;;;;6009806;29;20246;-79
2023/09/15 14:30:29;;;;;;;3.30;3.20;;;24.10;48.90;;;;;;6007136;29;20237;-80
2023/09/15 14:33:34;;;;;;;3.07;2.87;;;24.20;49.10;;;;;;6008315;29;20757;-79
2023/09/15 14:36:38;;;;;;;4.03;3.83;;;24.00;48.90;;;;;;6008804;29;20826;-80
2023/09/15 14:39:42;;;;;;;4.20;3.57;;;24.10;49.10;;;;;;6013201;29;20237;-82
2023/09/15 14:42:47;;;;;;;4.13;3.80;;;24.10;48.90;;;;;;6010387;29;20317;-82
2023/09/15 14:45:50;;;;;;;3.90;3.80;;;24.00;49.20;;;;;;6004798;29;20761;-81
2023/09/15 14:48:54;;;;;;;3.73;3.43;;;24.00;48.80;;;;;;6009882;29;20258;-79
2023/09/15 14:51:59;;;;;;;3.87;3.67;;;23.90;48.80;;;;;;6019507;29;20237;-81
2023/09/15 14:55:03;;;;;;;4.50;3.80;;;23.90;50.00;;;;;;6020835;29;20237;-81
2023/09/15 14:58:06;;;;;;;6.53;3.60;;;23.70;49.20;;;;;;6010713;29;20241;-80
2023/09/15 15:01:10;;;;;;;4.77;4.37;;;23.80;49.30;;;;;;6011498;29;20270;-80
2023/09/15 15:04:15;;;;;;;3.90;3.80;;;23.90;49.40;;;;;;6014750;29;20714;-81
2023/09/15 15:07:19;;;;;;;4.27;4.03;;;23.90;49.10;;;;;;6016634;29;20240;-81
2023/09/15 15:10:22;;;;;;;4.53;4.33;;;23.90;49.20;;;;;;6016534;29;20251;-81
2023/09/15 15:13:25;;;;;;;4.50;4.30;;;23.80;50.00;;;;;;6013292;29;20250;-82
2023/09/15 15:16:28;;;;;;;4.37;3.77;;;23.80;50.00;;;;;;6001293;29;20340;-80
2023/09/15 15:19:33;;;;;;;4.30;4.00;;;23.60;51.20;;;;;;6005371;29;20298;-82
2023/09/15 15:22:36;;;;;;;4.03;3.93;;;23.50;50.50;;;;;;6003621;29;20237;-83
2023/09/15 15:25:40;;;;;;;4.73;3.70;;;23.30;51.00;;;;;;6009948;29;20239;-79
2023/09/15 15:28:43;;;;;;;4.63;4.30;;;23.30;51.20;;;;;;6006667;29;20381;-81
2023/09/15 15:31:47;;;;;;;5.03;4.53;;;23.10;52.30;;;;;;6001464;29;20260;-79
2023/09/15 15:34:53;;;;;;;4.37;3.90;;;22.90;52.80;;;;;;6007900;29;20358;-81
2023/09/15 15:37:58;;;;;;;5.90;4.73;;;22.70;53.20;;;;;;6012293;29;20244;-81
2023/09/15 15:41:01;;;;;;;4.73;4.53;;;22.50;53.80;;;;;;6023728;29;20240;-81
2023/09/15 15:44:05;;;;;;;4.67;4.37;;;22.20;54.20;;;;;;6015258;29;20240;-80
2023/09/15 15:47:08;;;;;;;4.70;4.30;;;22.10;54.50;;;;;;6002025;29;20341;-80
2023/09/15 15:50:12;;;;;;;5.10;4.60;;;21.90;55.10;;;;;;6016003;29;20916;-82
2023/09/15 15:53:15;;;;;;;4.93;4.53;;;21.70;55.50;;;;;;6015024;29;20376;-80
2023/09/15 15:56:18;;;;;;;4.53;4.37;;;21.60;55.70;;;;;;6011516;29;20275;-79
2023/09/15 15:59:22;;;;;;;5.23;4.13;;;21.50;55.90;;;;;;6017343;29;20259;-82
2023/09/15 16:02:25;;;;;;;4.90;4.60;;;21.50;56.20;;;;;;6019203;29;20268;-80